createdAt,value
2023-01-21T00:01:28.490Z,102751.16
2023-01-21T00:03:55.918Z,102765.16
2023-01-21T00:06:37.209Z,102765.47
2023-01-21T00:09:10.984Z,102771.97
2023-01-21T00:11:39.442Z,102773.09
2023-01-21T00:14:09.032Z,102778.44
2023-01-21T00:16:35.370Z,102778.72
2023-01-21T00:19:09.778Z,102785.75
2023-01-21T00:21:40.367Z,102789.56
2023-01-21T00:24:25.356Z,102795.03
2023-01-21T00:26:52.771Z,102800.66
2023-01-21T00:29:24.256Z,102807.97
2023-01-21T00:31:50.767Z,102811.63
2023-01-21T00:34:17.331Z,102818.09
2023-01-21T00:36:45.807Z,102827.09
2023-01-21T00:39:12.202Z,102828.09
2023-01-21T00:41:40.581Z,102824.72
2023-01-21T00:44:07.047Z,102826.53
2023-01-21T00:46:33.540Z,102829.38
2023-01-21T00:49:00.303Z,102828.50
2023-01-21T00:51:29.811Z,102829.66
2023-01-21T00:54:03.340Z,102839.19
2023-01-21T00:56:41.837Z,102833.03
2023-01-21T00:59:08.407Z,102841.16
2023-01-21T01:01:50.271Z,102830.78
2023-01-21T01:04:23.643Z,102835.28
2023-01-21T01:07:00.268Z,102842.00
2023-01-21T01:09:26.675Z,102844.97
2023-01-21T01:11:57.222Z,102842.84
2023-01-21T01:14:29.015Z,102854.34
2023-01-21T01:16:56.470Z,102860.50
2023-01-21T01:19:45.839Z,102858.84
2023-01-21T01:22:18.661Z,102863.47
2023-01-21T01:24:46.442Z,102862.09
2023-01-21T01:27:12.836Z,102866.03
2023-01-21T01:29:39.212Z,102879.06
2023-01-21T01:32:05.698Z,102886.06
2023-01-21T01:34:32.193Z,102889.72
2023-01-21T01:36:58.674Z,102890.03
2023-01-21T01:39:43.721Z,102899.84
2023-01-21T01:42:15.357Z,102902.66
2023-01-21T01:44:57.422Z,102901.25
2023-01-21T01:47:30.623Z,102904.63
2023-01-21T01:50:02.627Z,102905.47
2023-01-21T01:52:30.419Z,102893.97
2023-01-21T01:55:00.454Z,102902.41
2023-01-21T01:57:34.209Z,102914.19
2023-01-21T02:00:11.711Z,102907.88
2023-01-21T02:03:22.898Z,102926.53
2023-01-21T02:05:50.857Z,102940.84
2023-01-21T02:08:36.327Z,102939.16
2023-01-21T02:11:11.858Z,102943.66
2023-01-21T02:13:38.817Z,102937.47
2023-01-21T02:16:28.597Z,102947.44
2023-01-21T02:19:04.123Z,102948.44
2023-01-21T02:22:11.370Z,102954.06
2023-01-21T02:25:16.515Z,102954.06
2023-01-21T02:28:07.489Z,102957.44
2023-01-21T02:31:07.073Z,102961.09
2023-01-21T02:33:55.498Z,102961.38
2023-01-21T02:36:41.875Z,102968.66
2023-01-21T02:39:24.693Z,102959.97
2023-01-21T02:42:08.998Z,102978.47
2023-01-21T02:45:03.167Z,102979.59
2023-01-21T02:48:06.241Z,102981.56
2023-01-21T02:51:29.641Z,102992.50
2023-01-21T02:53:56.142Z,102990.81
2023-01-21T02:56:25.514Z,102989.97
2023-01-21T02:59:03.466Z,102985.50
2023-01-21T03:01:52.742Z,102996.44
2023-01-21T03:04:39.656Z,102991.09
2023-01-21T03:07:27.085Z,102996.72
2023-01-21T03:10:01.848Z,103002.31
2023-01-21T03:12:41.735Z,103008.63
2023-01-21T03:15:42.003Z,103013.97
2023-01-21T03:18:16.410Z,103011.56
2023-01-21T03:21:24.328Z,103016.91
2023-01-21T03:24:02.521Z,103024.19
2023-01-21T03:26:53.739Z,103027.13
2023-01-21T03:29:26.032Z,103022.09
2023-01-21T03:31:58.048Z,103016.06
2023-01-21T03:34:27.779Z,103022.63
2023-01-21T03:37:12.839Z,103029.91
2023-01-21T03:39:58.502Z,103034.53
2023-01-21T03:42:30.083Z,103036.22
2023-01-21T03:44:57.014Z,103032.59
2023-01-21T03:47:31.890Z,103038.19
2023-01-21T03:50:08.702Z,103029.50
2023-01-21T03:52:54.661Z,103032.44
2023-01-21T03:55:21.687Z,103034.38
2023-01-21T03:57:54.232Z,103027.53
2023-01-21T04:00:33.890Z,103027.81
2023-01-21T04:03:00.310Z,103027.81
2023-01-21T04:05:26.745Z,103029.50
2023-01-21T04:08:01.480Z,103031.72
2023-01-21T04:10:28.958Z,103037.88
2023-01-21T04:13:21.338Z,103039.81
2023-01-21T04:15:47.810Z,103050.47
2023-01-21T04:18:16.289Z,103046.00
2023-01-21T04:20:47.855Z,103047.81
2023-01-21T04:23:14.279Z,103056.78
2023-01-21T04:25:52.540Z,103048.94
2023-01-21T04:29:10.401Z,103056.34
2023-01-21T04:32:06.556Z,103060.97
2023-01-21T04:34:50.387Z,103063.63
2023-01-21T04:37:16.783Z,103064.59
2023-01-21T04:39:43.176Z,103066.56
2023-01-21T04:42:09.563Z,103070.06
2023-01-21T04:44:36.099Z,103067.53
2023-01-21T04:47:04.608Z,103073.13
2023-01-21T04:49:35.132Z,103073.13
2023-01-21T04:52:01.488Z,103065.28
2023-01-21T04:54:27.858Z,103069.75
2023-01-21T04:56:54.310Z,103073.38
2023-01-21T04:59:22.770Z,103078.16
2023-01-21T05:01:49.270Z,103084.31
2023-01-21T05:04:15.748Z,103073.66
2023-01-21T05:06:42.133Z,103078.97
2023-01-21T05:09:08.572Z,103082.63
2023-01-21T05:11:41.315Z,103089.78
2023-01-21T05:14:07.731Z,103093.53
2023-01-21T05:16:37.376Z,103101.50
2023-01-21T05:19:04.897Z,103112.16
2023-01-21T05:21:51.721Z,103111.19
2023-01-21T05:24:26.422Z,103114.81
2023-01-21T05:26:52.994Z,103119.31
2023-01-21T05:29:19.438Z,103115.78
2023-01-21T05:31:49.984Z,103127.41
2023-01-21T05:34:16.504Z,103126.69
2023-01-21T05:36:45.034Z,103126.00
2023-01-21T05:39:11.541Z,103120.66
2023-01-21T05:41:38.069Z,103133.00
2023-01-21T05:44:18.003Z,103131.19
2023-01-21T05:46:44.485Z,103131.06
2023-01-21T05:49:11.979Z,103131.06
2023-01-21T05:51:38.456Z,103130.78
2023-01-21T05:54:19.239Z,103141.16
2023-01-21T05:56:46.849Z,103153.25
2023-01-21T05:59:38.272Z,103150.56
2023-01-21T06:02:08.911Z,103148.78
2023-01-21T06:04:45.444Z,103160.84
2023-01-21T06:07:12.006Z,103167.84
2023-01-21T06:09:38.382Z,103167.72
2023-01-21T06:12:13.056Z,103172.66
2023-01-21T06:14:39.437Z,103177.97
2023-01-21T06:17:09.906Z,103174.59
2023-01-21T06:19:36.343Z,103177.97
2023-01-21T06:22:02.760Z,103180.75
2023-01-21T06:24:29.179Z,103185.25
2023-01-21T06:26:55.623Z,103190.56
2023-01-21T06:29:25.587Z,103192.25
2023-01-21T06:31:54.085Z,103204.59
2023-01-21T06:34:25.591Z,103200.97
2023-01-21T06:36:52.331Z,103205.06
2023-01-21T06:39:19.077Z,103210.22
2023-01-21T06:41:45.505Z,103213.03
2023-01-21T06:44:12.057Z,103217.25
2023-01-21T06:46:43.382Z,103215.44
2023-01-21T06:49:16.394Z,103225.13
2023-01-21T06:51:51.876Z,103231.16
2023-01-21T06:54:18.340Z,103229.56
2023-01-21T06:56:44.785Z,103237.31
2023-01-21T06:59:22.498Z,103241.91
2023-01-21T07:01:48.980Z,103251.59
2023-01-21T07:04:15.502Z,103246.97
2023-01-21T07:06:52.543Z,103242.50
2023-01-21T07:09:37.448Z,103243.34
2023-01-21T07:12:06.915Z,103243.34
2023-01-21T07:14:51.666Z,103238.28
2023-01-21T07:17:18.144Z,103244.31
2023-01-21T07:19:44.544Z,103249.53
2023-01-21T07:22:10.914Z,103257.38
2023-01-21T07:24:37.379Z,103255.41
2023-01-21T07:27:05.655Z,103256.41
2023-01-21T07:29:35.043Z,103269.72
2023-01-21T07:32:01.601Z,103268.03
2023-01-21T07:34:28.106Z,103269.72
2023-01-21T07:36:54.505Z,103271.41
2023-01-21T07:39:20.922Z,103279.28
2023-01-21T07:41:51.389Z,103286.28
2023-01-21T07:44:20.991Z,103287.38
2023-01-21T07:47:16.513Z,103298.88
2023-01-21T07:49:48.554Z,103295.38
2023-01-21T07:52:19.211Z,103294.38
2023-01-21T07:54:47.926Z,103296.94
2023-01-21T07:57:17.567Z,103315.19
2023-01-21T08:00:00.682Z,103326.66
2023-01-21T08:02:27.430Z,103334.66
2023-01-21T08:04:53.914Z,103333.94
2023-01-21T08:07:31.773Z,103348.81
2023-01-21T08:10:54.347Z,103350.63
2023-01-21T08:13:29.061Z,103348.81
2023-01-21T08:15:56.753Z,103346.03
2023-01-21T08:18:24.089Z,103347.34
2023-01-21T08:20:55.647Z,103352.66
2023-01-21T08:23:22.473Z,103348.78
2023-01-21T08:25:52.322Z,103358.44
2023-01-21T08:28:18.863Z,103360.13
2023-01-21T08:30:45.422Z,103353.69
2023-01-21T08:33:12.679Z,103356.25
2023-01-21T08:35:39.186Z,103356.94
2023-01-21T08:38:07.049Z,103355.00
2023-01-21T08:40:33.574Z,103355.00
2023-01-21T08:43:02.522Z,103352.06
2023-01-21T08:45:29.816Z,103357.16
2023-01-21T08:48:04.124Z,103364.16
2023-01-21T08:50:30.585Z,103355.19
2023-01-21T08:52:57.212Z,103370.91
2023-01-21T08:55:27.629Z,103368.72
2023-01-21T08:57:55.836Z,103370.41
2023-01-21T09:00:23.853Z,103381.78
2023-01-21T09:02:51.769Z,103385.88
2023-01-21T09:05:30.500Z,103386.28
2023-01-21T09:07:58.272Z,103387.00
2023-01-21T09:10:44.063Z,103389.41
2023-01-21T09:13:11.175Z,103381.66
2023-01-21T09:15:41.181Z,103387.72
2023-01-21T09:18:07.870Z,103390.09
2023-01-21T09:20:34.605Z,103382.00
2023-01-21T09:23:01.157Z,103391.53
2023-01-21T09:25:27.883Z,103388.75
2023-01-21T09:27:54.386Z,103391.28
2023-01-21T09:30:20.915Z,103397.72
2023-01-21T09:32:47.407Z,103399.25
2023-01-21T09:35:13.849Z,103397.19
2023-01-21T09:37:40.311Z,103395.09
2023-01-21T09:40:07.167Z,103395.81
2023-01-21T09:42:34.163Z,103398.47
2023-01-21T09:45:02.894Z,103396.50
2023-01-21T09:47:36.822Z,103407.91
2023-01-21T09:50:05.953Z,103411.28
2023-01-21T09:52:38.614Z,103425.06
2023-01-21T09:55:12.244Z,103437.16
2023-01-21T09:58:10.416Z,103429.59
2023-01-21T10:00:45.398Z,103427.63
2023-01-21T10:03:32.857Z,103409.66
2023-01-21T10:06:30.554Z,103426.13
2023-01-21T10:09:28.400Z,103416.28
2023-01-21T10:12:25.668Z,103413.22
2023-01-21T10:14:59.061Z,103412.25
2023-01-21T10:17:42.139Z,103419.38
2023-01-21T10:20:12.593Z,103407.63
2023-01-21T10:22:46.082Z,103409.41
2023-01-21T10:25:33.544Z,103415.63
2023-01-21T10:28:12.833Z,103420.94
2023-01-21T10:30:43.705Z,103432.34
2023-01-21T10:33:19.413Z,103431.34
2023-01-21T10:36:18.349Z,103432.91
2023-01-21T10:39:04.396Z,103437.13
2023-01-21T10:41:49.729Z,103438.81
2023-01-21T10:44:37.751Z,103439.81
2023-01-21T10:47:41.767Z,103443.19
2023-01-21T10:50:26.923Z,103438.81
2023-01-21T10:52:57.267Z,103436.97
2023-01-21T10:55:29.712Z,103433.22
2023-01-21T10:58:12.372Z,103436.72
2023-01-21T11:00:47.325Z,103446.03
2023-01-21T11:03:29.837Z,103436.16
2023-01-21T11:05:59.034Z,103441.13
2023-01-21T11:08:27.046Z,103440.13
2023-01-21T11:10:55.395Z,103445.19
2023-01-21T11:13:22.307Z,103447.72
2023-01-21T11:15:53.374Z,103445.06
2023-01-21T11:18:37.841Z,103446.63
2023-01-21T11:21:19.092Z,103442.00
2023-01-21T11:24:20.138Z,103436.38
2023-01-21T11:26:51.756Z,103432.84
2023-01-21T11:29:20.045Z,103440.72
2023-01-21T11:32:05.879Z,103447.75
2023-01-21T11:34:33.468Z,103446.91
2023-01-21T11:37:05.734Z,103442.97
2023-01-21T11:39:36.680Z,103431.88
2023-01-21T11:42:13.372Z,103431.75
2023-01-21T11:44:59.273Z,103434.00
2023-01-21T11:47:37.481Z,103432.75
2023-01-21T11:50:17.497Z,103428.38
2023-01-21T11:52:44.583Z,103432.06
2023-01-21T11:55:21.014Z,103423.88
2023-01-21T11:57:56.571Z,103425.84
2023-01-21T12:00:26.966Z,103414.88
2023-01-21T12:02:59.666Z,103420.22
2023-01-21T12:05:36.882Z,103419.94
2023-01-21T12:08:06.166Z,103428.63
2023-01-21T12:10:43.901Z,103422.75
2023-01-21T12:13:17.244Z,103426.84
2023-01-21T12:16:03.667Z,103420.31
2023-01-21T12:18:49.590Z,103430.03
2023-01-21T12:21:52.160Z,103417.97
2023-01-21T12:24:34.582Z,103416.56
2023-01-21T12:27:09.854Z,103416.84
2023-01-21T12:29:56.677Z,103421.78
2023-01-21T12:32:34.199Z,103416.28
2023-01-21T12:35:10.829Z,103416.72
2023-01-21T12:37:52.317Z,103413.75
2023-01-21T12:40:45.467Z,103408.97
2023-01-21T12:43:31.086Z,103410.94
2023-01-21T12:46:04.481Z,103409.13
2023-01-21T12:48:51.315Z,103416.88
2023-01-21T12:51:26.266Z,103421.22
2023-01-21T12:54:04.223Z,103410.66
2023-01-21T12:57:13.017Z,103404.50
2023-01-21T12:59:48.416Z,103414.31
2023-01-21T13:02:27.460Z,103405.59
2023-01-21T13:05:03.964Z,103409.41
2023-01-21T13:07:30.572Z,103420.22
2023-01-21T13:10:15.288Z,103406.75
2023-01-21T13:12:46.436Z,103414.88
2023-01-21T13:15:19.889Z,103413.78
2023-01-21T13:17:58.171Z,103419.13
2023-01-21T13:20:24.968Z,103419.41
2023-01-21T13:23:20.302Z,103427.53
2023-01-21T13:25:59.394Z,103419.38
2023-01-21T13:28:39.345Z,103415.88
2023-01-21T13:31:25.619Z,103424.72
2023-01-21T13:34:05.758Z,103421.22
2023-01-21T13:36:51.393Z,103427.56
2023-01-21T13:39:47.720Z,103421.38
2023-01-21T13:42:36.704Z,103415.72
2023-01-21T13:45:26.696Z,103425.00
2023-01-21T13:48:16.140Z,103423.06
2023-01-21T13:50:55.769Z,103422.19
2023-01-21T13:53:37.043Z,103423.59
2023-01-21T13:56:21.725Z,103420.91
2023-01-21T13:59:02.829Z,103426.84
2023-01-21T14:01:44.496Z,103419.94
2023-01-21T14:04:31.566Z,103434.28
2023-01-21T14:07:22.824Z,103431.91
2023-01-21T14:10:07.969Z,103441.34
2023-01-21T14:12:47.784Z,103447.50
2023-01-21T14:15:34.512Z,103445.81
2023-01-21T14:18:31.975Z,103448.38
2023-01-21T14:21:12.182Z,103444.84
2023-01-21T14:24:21.229Z,103451.88
2023-01-21T14:26:59.744Z,103444.72
2023-01-21T14:29:40.227Z,103454.81
2023-01-21T14:36:07.787Z,103461.16
2023-01-21T14:38:51.073Z,103460.56
2023-01-21T14:41:17.732Z,103459.03
2023-01-21T14:43:44.345Z,103465.22
2023-01-21T14:46:54.579Z,103458.44
2023-01-21T14:49:39.237Z,103462.38
2023-01-21T14:52:05.610Z,103470.41
2023-01-21T14:54:43.319Z,103467.00
2023-01-21T14:57:42.541Z,103472.34
2023-01-21T15:00:36.850Z,103475.19
2023-01-21T15:03:03.186Z,103477.00
2023-01-21T15:05:35.874Z,103480.38
2023-01-21T15:08:31.418Z,103482.06
2023-01-21T15:11:02.203Z,103475.88
2023-01-21T15:14:01.145Z,103489.94
2023-01-21T15:16:27.447Z,103490.06
2023-01-21T15:19:09.165Z,103489.63
2023-01-21T15:21:43.430Z,103482.88
2023-01-21T15:24:19.006Z,103492.56
2023-01-21T15:27:20.771Z,103490.88
2023-01-21T15:29:53.341Z,103497.50
2023-01-21T15:32:30.215Z,103496.94
2023-01-21T15:35:04.277Z,103503.41
2023-01-21T15:37:36.385Z,103512.38
2023-01-21T15:40:26.652Z,103510.69
2023-01-21T15:43:20.274Z,103506.44
2023-01-21T15:46:02.485Z,103512.94
2023-01-21T15:48:47.278Z,103514.63
2023-01-21T15:51:27.655Z,103507.31
2023-01-21T15:54:14.395Z,103501.38
2023-01-21T15:56:55.688Z,103512.06
2023-01-21T15:59:56.372Z,103523.59
2023-01-21T16:02:27.274Z,103526.28
2023-01-21T16:05:02.200Z,103519.09
2023-01-21T16:07:51.121Z,103520.06
2023-01-21T16:10:20.447Z,103524.59
2023-01-21T16:13:13.145Z,103525.81
2023-01-21T16:16:17.528Z,103526.09
2023-01-21T16:18:53.071Z,103532.25
2023-01-21T16:21:24.262Z,103533.25
2023-01-21T16:23:53.574Z,103537.31
2023-01-21T16:26:27.776Z,103540.97
2023-01-21T16:28:54.752Z,103533.94
2023-01-21T16:31:21.595Z,103534.19
2023-01-21T16:33:48.527Z,103538.66
2023-01-21T16:36:15.247Z,103533.75
2023-01-21T16:38:46.081Z,103546.38
2023-01-21T16:41:12.565Z,103544.78
2023-01-21T16:43:52.199Z,103543.25
2023-01-21T16:46:40.306Z,103550.13
2023-01-21T16:49:14.938Z,103551.25
2023-01-21T16:51:49.745Z,103556.00
2023-01-21T16:54:18.930Z,103558.81
2023-01-21T16:56:51.400Z,103554.44
2023-01-21T16:59:22.735Z,103559.63
2023-01-21T17:01:49.914Z,103556.97
2023-01-21T17:04:16.342Z,103554.03
2023-01-21T17:06:45.323Z,103549.56
2023-01-21T17:09:32.112Z,103565.56
2023-01-21T17:12:04.777Z,103551.53
2023-01-21T17:14:32.101Z,103551.63
2023-01-21T17:17:02.207Z,103562.19
2023-01-21T17:19:37.764Z,103551.53
2023-01-21T17:22:19.278Z,103555.16
2023-01-21T17:25:16.331Z,103562.47
2023-01-21T17:27:44.874Z,103563.28
2023-01-21T17:30:31.034Z,103567.06
2023-01-21T17:33:00.068Z,103564.56
2023-01-21T17:35:28.910Z,103568.06
2023-01-21T17:37:58.428Z,103566.38
2023-01-21T17:40:30.776Z,103562.88
2023-01-21T17:42:59.080Z,103566.09
2023-01-21T17:45:36.467Z,103571.19
2023-01-21T17:48:10.252Z,103569.75
2023-01-21T17:50:37.544Z,103575.06
2023-01-21T17:53:17.536Z,103574.38
2023-01-21T17:56:03.041Z,103575.06
2023-01-21T17:58:51.061Z,103575.06
2023-01-21T18:01:19.028Z,103574.16
2023-01-21T18:03:45.438Z,103584.84
2023-01-21T18:06:27.256Z,103580.47
2023-01-21T18:08:56.299Z,103575.84
2023-01-21T18:11:23.147Z,103582.88
2023-01-21T18:13:50.159Z,103581.19
2023-01-21T18:16:16.684Z,103583.88
2023-01-21T18:18:43.380Z,103581.19
2023-01-21T18:21:18.355Z,103571.38
2023-01-21T18:23:44.734Z,103575.75
2023-01-21T18:26:27.368Z,103580.22
2023-01-21T18:28:53.763Z,103577.56
2023-01-21T18:31:20.354Z,103577.56
2023-01-21T18:33:46.796Z,103578.53
2023-01-21T18:36:13.212Z,103579.50
2023-01-21T18:38:39.674Z,103579.50
2023-01-21T18:41:07.033Z,103580.47
2023-01-21T18:43:33.392Z,103574.44
2023-01-21T18:45:59.770Z,103571.91
2023-01-21T18:48:29.052Z,103579.31
2023-01-21T18:50:55.908Z,103576.88
2023-01-21T18:53:22.417Z,103570.97
2023-01-21T18:55:51.663Z,103568.44
2023-01-21T18:58:18.035Z,103564.78
2023-01-21T19:00:44.461Z,103570.13
2023-01-21T19:03:14.978Z,103559.47
2023-01-21T19:05:43.977Z,103553.41
2023-01-21T19:08:19.253Z,103559.59
2023-01-21T19:10:45.641Z,103562.25
2023-01-21T19:13:12.135Z,103560.56
2023-01-21T19:15:39.039Z,103566.16
2023-01-21T19:18:11.288Z,103561.66
2023-01-21T19:20:41.585Z,103566.28
2023-01-21T19:23:15.611Z,103568.38
2023-01-21T19:25:45.086Z,103559.75
2023-01-21T19:28:12.467Z,103570.56
2023-01-21T19:30:39.247Z,103568.28
2023-01-21T19:33:06.661Z,103574.56
2023-01-21T19:35:46.313Z,103573.59
2023-01-21T19:38:18.766Z,103575.44
2023-01-21T19:40:46.605Z,103570.94
2023-01-21T19:43:14.958Z,103575.31
2023-01-21T19:45:42.502Z,103580.63
2023-01-21T19:48:20.857Z,103578.94
2023-01-21T19:50:48.392Z,103575.56
2023-01-21T19:53:17.663Z,103578.50
2023-01-21T19:55:46.140Z,103572.44
2023-01-21T19:58:19.363Z,103570.75
2023-01-21T20:00:51.580Z,103574.66
2023-01-21T20:03:19.855Z,103576.34
2023-01-21T20:05:49.605Z,103571.59
2023-01-21T20:08:20.600Z,103576.81
2023-01-21T20:10:47.247Z,103575.22
2023-01-21T20:13:15.088Z,103578.03
2023-01-21T20:15:43.765Z,103582.50
2023-01-21T20:18:19.328Z,103575.63
2023-01-21T20:20:45.979Z,103578.41
2023-01-21T20:23:16.022Z,103585.56
2023-01-21T20:25:43.964Z,103577.56
2023-01-21T20:28:21.689Z,103585.81
2023-01-21T20:30:49.446Z,103587.75
2023-01-21T20:33:19.552Z,103589.44
2023-01-21T20:35:48.210Z,103588.72
2023-01-21T20:38:16.994Z,103595.75
2023-01-21T20:40:43.403Z,103601.44
2023-01-21T20:43:09.854Z,103587.16
2023-01-21T20:45:43.441Z,103588.72
2023-01-21T20:48:18.775Z,103585.09
2023-01-21T20:50:45.664Z,103587.03
2023-01-21T20:53:12.836Z,103593.09
2023-01-21T20:55:40.003Z,103593.09
2023-01-21T20:58:07.045Z,103590.44
2023-01-21T21:00:35.435Z,103594.78
2023-01-21T21:03:02.095Z,103594.78
2023-01-21T21:05:29.123Z,103576.13
2023-01-21T21:07:56.129Z,103592.84
2023-01-21T21:10:29.561Z,103587.50
2023-01-21T21:12:58.620Z,103574.28
2023-01-21T21:15:30.141Z,103587.63
2023-01-21T21:17:57.417Z,103595.03
2023-01-21T21:20:31.186Z,103595.03
2023-01-21T21:22:57.990Z,103600.38
2023-01-21T21:25:27.383Z,103599.66
2023-01-21T21:27:54.761Z,103597.22
2023-01-21T21:30:30.318Z,103591.91
2023-01-21T21:32:59.172Z,103589.22
2023-01-21T21:35:36.908Z,103590.19
2023-01-21T21:38:05.790Z,103590.19
2023-01-21T21:40:32.433Z,103588.50
2023-01-21T21:43:17.706Z,103587.78
2023-01-21T21:46:03.039Z,103582.31
2023-01-21T21:48:39.415Z,103584.88
2023-01-21T21:51:19.988Z,103585.97
2023-01-21T21:53:47.227Z,103583.28
2023-01-21T21:56:17.407Z,103580.78
2023-01-21T21:58:44.237Z,103585.13
2023-01-21T22:01:16.234Z,103581.75
2023-01-21T22:03:43.615Z,103578.34
2023-01-21T22:06:11.514Z,103574.09
2023-01-21T22:08:39.793Z,103571.59
2023-01-21T22:11:08.904Z,103578.84
2023-01-21T22:13:37.805Z,103577.16
2023-01-21T22:16:05.193Z,103572.81
2023-01-21T22:18:32.259Z,103574.59
2023-01-21T22:21:15.720Z,103574.59
2023-01-21T22:23:42.446Z,103562.41
2023-01-21T22:26:13.086Z,103568.94
2023-01-21T22:28:40.509Z,103569.66
2023-01-21T22:31:10.619Z,103567.81
2023-01-21T22:33:37.720Z,103562.50
2023-01-21T22:36:12.720Z,103558.03
2023-01-21T22:38:40.894Z,103566.03
2023-01-21T22:41:11.802Z,103561.66
2023-01-21T22:43:41.776Z,103560.81
2023-01-21T22:46:11.093Z,103572.31
2023-01-21T22:48:37.611Z,103572.44
2023-01-21T22:51:17.467Z,103568.81
2023-01-21T22:53:44.038Z,103565.31
2023-01-21T22:56:13.535Z,103571.59
2023-01-21T22:58:42.921Z,103570.03
2023-01-21T23:01:27.546Z,103566.78
2023-01-21T23:03:54.263Z,103573.06
2023-01-21T23:06:28.336Z,103570.41
2023-01-21T23:08:57.919Z,103567.75
2023-01-21T23:11:25.384Z,103566.03
2023-01-21T23:13:53.292Z,103562.66
2023-01-21T23:16:23.814Z,103557.59
2023-01-21T23:19:02.497Z,103555.88
2023-01-21T23:21:37.673Z,103557.81
2023-01-21T23:24:14.413Z,103556.13
2023-01-21T23:26:52.980Z,103546.44
2023-01-21T23:29:19.477Z,103542.09
2023-01-21T23:31:46.114Z,103549.34
2023-01-21T23:34:16.650Z,103544.41
2023-01-21T23:36:43.063Z,103545.38
2023-01-21T23:39:09.400Z,103541.88
2023-01-21T23:41:43.896Z,103537.50
2023-01-21T23:44:34.121Z,103533.16
2023-01-21T23:47:05.906Z,103540.91
2023-01-21T23:49:32.440Z,103535.31
2023-01-21T23:52:12.398Z,103542.09
2023-01-21T23:54:57.075Z,103544.50
2023-01-21T23:57:50.496Z,103541.34
